createdAt,value
2019-03-01T00:01:19.796Z,17.17
2019-03-01T00:03:57.909Z,16.95
2019-03-01T00:06:41.957Z,14.95
2019-03-01T00:09:39.706Z,17.20
2019-03-01T00:12:43.621Z,14.78
2019-03-01T00:15:30.541Z,14.68
2019-03-01T00:18:05.478Z,14.85
2019-03-01T00:20:48.997Z,12.47
2019-03-01T00:23:49.858Z,14.43
2019-03-01T00:26:33.697Z,15.53
2019-03-01T00:29:20.806Z,13.38
2019-03-01T00:31:58.596Z,15.58
2019-03-01T00:34:33.218Z,12.58
2019-03-01T00:37:10.927Z,15.05
2019-03-01T00:39:45.751Z,11.20
2019-03-01T00:42:37.097Z,15.85
2019-03-01T00:45:07.091Z,15.53
2019-03-01T00:47:36.186Z,12.05
2019-03-01T00:50:08.141Z,16.93
2019-03-01T00:52:38.680Z,13.40
2019-03-01T00:55:08.793Z,24.20
2019-03-01T00:57:37.995Z,13.40
2019-03-01T01:00:18.651Z,22.37
2019-03-01T01:02:47.651Z,25.88
2019-03-01T01:05:16.751Z,25.60
2019-03-01T01:07:46.041Z,17.75
2019-03-01T01:10:15.044Z,16.75
2019-03-01T01:12:44.032Z,24.90
2019-03-01T01:15:13.232Z,27.95
2019-03-01T01:17:42.223Z,21.73
2019-03-01T01:20:11.211Z,24.67
2019-03-01T01:22:40.320Z,28.40
2019-03-01T01:25:09.500Z,28.70
2019-03-01T01:27:38.501Z,23.35
2019-03-01T01:30:10.569Z,25.62
2019-03-01T01:32:42.639Z,36.90
2019-03-01T01:35:11.516Z,33.08
2019-03-01T01:37:42.674Z,39.65
2019-03-01T01:40:11.866Z,34.33
2019-03-01T01:42:40.846Z,30.30
2019-03-01T01:45:12.080Z,32.40
2019-03-01T01:47:41.204Z,37.13
2019-03-01T01:50:10.703Z,42.33
2019-03-01T01:52:39.812Z,36.75
2019-03-01T01:55:09.092Z,46.88
2019-03-01T01:57:38.180Z,60.95
2019-03-01T02:00:13.144Z,41.60
2019-03-01T02:02:42.212Z,50.60
2019-03-01T02:05:11.501Z,51.92
2019-03-01T02:07:40.722Z,45.65
2019-03-01T02:10:10.702Z,71.50
2019-03-01T02:12:39.616Z,54.70
2019-03-01T02:15:12.662Z,46.45
2019-03-01T02:17:41.701Z,51.20
2019-03-01T02:20:12.340Z,53.80
2019-03-01T02:22:41.540Z,47.48
2019-03-01T02:25:13.021Z,61.68
2019-03-01T02:27:42.089Z,57.55
2019-03-01T02:30:35.695Z,61.85
2019-03-01T02:33:06.822Z,51.10
2019-03-01T02:35:35.892Z,56.05
2019-03-01T02:38:04.876Z,64.17
2019-03-01T02:40:35.832Z,62.55
2019-03-01T02:43:05.737Z,57.62
2019-03-01T02:45:34.771Z,55.65
2019-03-01T02:48:03.827Z,61.90
2019-03-01T02:50:32.828Z,49.80
2019-03-01T02:53:01.917Z,59.80
2019-03-01T02:55:32.547Z,55.10
2019-03-01T02:58:01.639Z,59.55
2019-03-01T03:00:31.561Z,61.88
2019-03-01T03:03:00.439Z,56.92
2019-03-01T03:05:29.441Z,51.45
2019-03-01T03:08:02.825Z,51.08
2019-03-01T03:10:31.712Z,39.08
2019-03-01T03:13:03.187Z,34.27
2019-03-01T03:15:36.152Z,46.02
2019-03-01T03:18:05.153Z,40.98
2019-03-01T03:20:34.154Z,45.83
2019-03-01T03:23:03.351Z,34.65
2019-03-01T03:25:32.446Z,42.62
2019-03-01T03:28:01.326Z,46.05
2019-03-01T03:30:30.524Z,46.63
2019-03-01T03:32:59.617Z,55.33
2019-03-01T03:35:29.141Z,33.18
2019-03-01T03:37:58.222Z,47.27
2019-03-01T03:40:27.265Z,50.40
2019-03-01T03:42:56.420Z,56.45
2019-03-01T03:45:25.711Z,54.93
2019-03-01T03:47:54.696Z,44.48
2019-03-01T03:50:23.796Z,58.78
2019-03-01T03:52:52.986Z,30.68
2019-03-01T03:55:22.214Z,55.05
2019-03-01T03:57:51.187Z,58.92
2019-03-01T04:00:24.596Z,56.60
2019-03-01T04:02:53.702Z,61.02
2019-03-01T04:05:22.815Z,76.55
2019-03-01T04:07:52.080Z,59.33
2019-03-01T04:10:21.168Z,66.12
2019-03-01T04:12:50.183Z,59.67
2019-03-01T04:15:19.266Z,55.20
2019-03-01T04:17:48.149Z,40.25
2019-03-01T04:20:22.776Z,41.40
2019-03-01T04:22:51.781Z,80.07
2019-03-01T04:25:20.761Z,68.92
2019-03-01T04:27:49.865Z,55.12
2019-03-01T04:30:19.251Z,45.17
2019-03-01T04:32:48.351Z,59.00
2019-03-01T04:35:17.863Z,72.20
2019-03-01T04:37:47.161Z,61.90
2019-03-01T04:40:16.670Z,66.30
2019-03-01T04:42:45.651Z,45.10
2019-03-01T04:45:17.111Z,47.03
2019-03-01T04:47:46.095Z,48.48
2019-03-01T04:50:15.212Z,49.30
2019-03-01T04:52:44.400Z,55.50
2019-03-01T04:55:18.908Z,41.60
2019-03-01T04:57:47.906Z,64.45
2019-03-01T05:00:21.816Z,50.80
2019-03-01T05:02:50.806Z,56.77
2019-03-01T05:05:19.807Z,50.43
2019-03-01T05:07:49.306Z,65.25
2019-03-01T05:10:18.407Z,73.28
2019-03-01T05:12:47.510Z,62.95
2019-03-01T05:15:18.743Z,67.72
2019-03-01T05:17:48.653Z,42.83
2019-03-01T05:20:17.649Z,53.08
2019-03-01T05:22:46.846Z,71.97
2019-03-01T05:25:15.942Z,65.92
2019-03-01T05:27:44.932Z,66.90
2019-03-01T05:30:16.427Z,56.77
2019-03-01T05:32:45.462Z,52.20
2019-03-01T05:35:16.233Z,57.33
2019-03-01T05:37:45.314Z,47.73
2019-03-01T05:40:17.783Z,56.18
2019-03-01T05:42:46.797Z,59.65
2019-03-01T05:45:22.021Z,72.65
2019-03-01T05:47:51.518Z,80.65
2019-03-01T05:50:22.358Z,50.00
2019-03-01T05:52:51.662Z,67.35
2019-03-01T05:55:20.551Z,65.37
2019-03-01T05:58:21.803Z,68.20
2019-03-01T06:00:52.024Z,74.47
2019-03-01T06:03:57.266Z,63.85
2019-03-01T06:06:54.826Z,96.50
2019-03-01T06:09:35.486Z,69.12
2019-03-01T06:12:24.346Z,69.27
2019-03-01T06:15:14.136Z,67.82
2019-03-01T06:18:21.017Z,60.67
2019-03-01T06:21:09.666Z,58.85
2019-03-01T06:23:56.574Z,69.87
2019-03-01T06:26:43.998Z,79.20
2019-03-01T06:29:34.682Z,73.50
2019-03-01T06:32:24.791Z,53.78
2019-03-01T06:35:29.831Z,72.90
2019-03-01T06:38:33.809Z,72.35
2019-03-01T06:41:16.364Z,47.93
2019-03-01T06:43:50.975Z,75.95
2019-03-01T06:46:28.776Z,78.05
2019-03-01T06:48:59.411Z,76.42
2019-03-01T06:51:29.447Z,70.75
2019-03-01T06:53:58.415Z,77.97
2019-03-01T06:56:27.697Z,94.30
2019-03-01T06:58:57.022Z,95.83
2019-03-01T07:01:27.353Z,72.85
2019-03-01T07:03:57.490Z,84.83
2019-03-01T07:06:26.549Z,102.75
2019-03-01T07:08:55.437Z,81.67
2019-03-01T07:11:26.487Z,69.17
2019-03-01T07:13:55.481Z,92.88
2019-03-01T07:16:24.471Z,67.67
2019-03-01T07:18:53.870Z,61.53
2019-03-01T07:21:22.862Z,57.67
2019-03-01T07:23:51.751Z,58.17
2019-03-01T07:26:20.851Z,56.35
2019-03-01T07:28:49.843Z,64.27
2019-03-01T07:31:18.849Z,63.87
2019-03-01T07:33:48.352Z,49.00
2019-03-01T07:36:17.339Z,46.30
2019-03-01T07:38:46.331Z,47.13
2019-03-01T07:41:15.631Z,38.95
2019-03-01T07:43:44.631Z,52.83
2019-03-01T07:46:13.721Z,64.62
2019-03-01T07:48:42.818Z,42.90
2019-03-01T07:51:11.701Z,24.80
2019-03-01T07:53:42.041Z,19.40
2019-03-01T07:56:11.541Z,19.80
2019-03-01T07:58:40.535Z,18.45
2019-03-01T08:01:09.734Z,13.40
2019-03-01T08:03:38.835Z,18.62
2019-03-01T08:06:13.138Z,15.35
2019-03-01T08:08:38.806Z,14.93
2019-03-01T08:11:09.281Z,12.05
2019-03-01T08:13:38.278Z,16.87
2019-03-01T08:16:07.276Z,15.23
2019-03-01T08:18:36.468Z,10.32
2019-03-01T08:21:06.384Z,9.83
2019-03-01T08:23:36.092Z,14.87
2019-03-01T08:26:05.446Z,13.78
2019-03-01T08:28:34.594Z,13.25
2019-03-01T08:31:03.689Z,9.38
2019-03-01T08:33:32.688Z,10.48
2019-03-01T08:36:02.422Z,10.20
2019-03-01T08:38:33.394Z,7.12
2019-03-01T08:41:02.748Z,10.40
2019-03-01T08:43:31.721Z,7.10
2019-03-01T08:46:00.933Z,12.53
2019-03-01T08:48:30.546Z,6.90
2019-03-01T08:51:00.938Z,11.73
2019-03-01T08:53:29.976Z,8.38
2019-03-01T08:55:59.568Z,13.15
2019-03-01T08:58:28.648Z,11.35
2019-03-01T09:00:59.906Z,11.50
2019-03-01T09:03:43.866Z,12.78
2019-03-01T09:06:12.945Z,15.48
2019-03-01T09:08:42.916Z,10.68
2019-03-01T09:11:14.107Z,17.42
2019-03-01T09:13:42.972Z,12.55
2019-03-01T09:16:12.088Z,18.17
2019-03-01T09:18:41.186Z,13.03
2019-03-01T09:21:12.956Z,15.70
2019-03-01T09:23:40.925Z,9.53
2019-03-01T09:26:10.212Z,8.33
2019-03-01T09:28:39.884Z,15.58
2019-03-01T09:31:09.212Z,13.40
2019-03-01T09:33:38.306Z,8.03
2019-03-01T09:36:14.352Z,10.60
2019-03-01T09:38:43.780Z,12.75
2019-03-01T09:41:13.068Z,8.45
2019-03-01T09:43:42.171Z,7.55
2019-03-01T09:46:11.385Z,12.73
2019-03-01T09:48:40.468Z,10.53
2019-03-01T09:51:10.647Z,11.20
2019-03-01T09:53:40.788Z,11.22
2019-03-01T09:56:12.962Z,14.33
2019-03-01T09:58:41.148Z,13.48
2019-03-01T10:01:13.197Z,4.92
2019-03-01T10:03:42.202Z,10.20
2019-03-01T10:06:11.048Z,6.65
2019-03-01T10:08:40.388Z,11.33
2019-03-01T10:11:09.488Z,5.83
2019-03-01T10:13:38.592Z,5.45
2019-03-01T10:16:07.973Z,13.85
2019-03-01T10:18:37.068Z,11.20
2019-03-01T10:21:06.168Z,9.15
2019-03-01T10:23:35.464Z,7.72
2019-03-01T10:26:04.662Z,8.68
2019-03-01T10:28:34.834Z,7.22
2019-03-01T10:31:04.185Z,5.65
2019-03-01T10:33:33.172Z,9.55
2019-03-01T10:36:02.291Z,5.75
2019-03-01T10:38:31.546Z,6.33
2019-03-01T10:41:00.590Z,8.10
2019-03-01T10:43:29.656Z,8.20
2019-03-01T10:45:58.767Z,7.78
2019-03-01T10:48:27.868Z,7.60
2019-03-01T10:50:57.073Z,7.08
2019-03-01T10:53:26.283Z,8.80
2019-03-01T10:55:55.448Z,8.58
2019-03-01T10:58:24.556Z,6.50
2019-03-01T11:00:54.040Z,9.53
2019-03-01T11:03:23.060Z,6.08
2019-03-01T11:05:53.010Z,8.30
2019-03-01T11:08:22.253Z,11.38
2019-03-01T11:10:51.248Z,8.95
2019-03-01T11:13:20.267Z,11.05
2019-03-01T11:15:49.333Z,7.08
2019-03-01T11:18:18.423Z,5.97
2019-03-01T11:20:47.627Z,7.35
2019-03-01T11:23:16.828Z,6.25
2019-03-01T11:25:45.848Z,7.17
2019-03-01T11:28:14.929Z,6.50
2019-03-01T11:30:44.158Z,3.92
2019-03-01T11:33:13.438Z,5.80
2019-03-01T11:35:42.623Z,5.28
2019-03-01T11:38:11.923Z,9.93
2019-03-01T11:40:41.002Z,6.67
2019-03-01T11:43:09.996Z,10.03
2019-03-01T11:45:39.295Z,3.83
2019-03-01T11:48:08.486Z,6.25
2019-03-01T11:50:39.029Z,5.97
2019-03-01T11:53:08.322Z,6.67
2019-03-01T11:55:37.306Z,4.95
2019-03-01T11:58:06.328Z,5.65
2019-03-01T12:00:35.500Z,3.92
2019-03-01T12:03:04.798Z,5.90
2019-03-01T12:05:33.894Z,4.08
2019-03-01T12:08:03.222Z,8.03
2019-03-01T12:10:32.696Z,4.85
2019-03-01T12:13:01.720Z,2.98
2019-03-01T12:15:30.908Z,5.47
2019-03-01T12:17:59.892Z,3.90
2019-03-01T12:20:30.775Z,3.52
2019-03-01T12:23:00.121Z,3.45
2019-03-01T12:25:29.246Z,6.75
2019-03-01T12:27:58.327Z,4.30
2019-03-01T12:30:27.947Z,5.53
2019-03-01T12:32:57.019Z,6.83
2019-03-01T12:35:26.128Z,4.05
2019-03-01T12:37:55.326Z,4.97
2019-03-01T12:40:29.117Z,4.33
2019-03-01T12:42:58.117Z,4.60
2019-03-01T12:45:27.409Z,3.95
2019-03-01T12:47:56.529Z,2.80
2019-03-01T12:50:25.608Z,4.92
2019-03-01T12:52:54.810Z,3.42
2019-03-01T12:55:28.508Z,4.00
2019-03-01T12:57:57.483Z,2.52
2019-03-01T13:00:31.823Z,2.67
2019-03-01T13:03:00.928Z,3.08
2019-03-01T13:05:30.422Z,2.40
2019-03-01T13:07:59.719Z,3.92
2019-03-01T13:10:31.688Z,4.28
2019-03-01T13:13:02.111Z,5.42
2019-03-01T13:15:31.607Z,2.08
2019-03-01T13:18:03.274Z,3.55
2019-03-01T13:20:33.711Z,2.60
2019-03-01T13:23:04.650Z,4.97
2019-03-01T13:25:34.049Z,2.65
2019-03-01T13:28:03.085Z,2.55
2019-03-01T13:30:32.563Z,6.20
2019-03-01T13:33:03.585Z,4.78
2019-03-01T13:35:32.847Z,1.90
2019-03-01T13:38:03.784Z,2.40
2019-03-01T13:40:32.808Z,4.03
2019-03-01T13:43:01.688Z,2.27
2019-03-01T13:45:30.911Z,3.35
2019-03-01T13:48:00.008Z,5.05
2019-03-01T13:50:29.188Z,3.55
2019-03-01T13:52:58.300Z,4.03
2019-03-01T13:55:27.712Z,3.95
2019-03-01T13:57:57.188Z,4.20
2019-03-01T14:00:26.404Z,2.92
2019-03-01T14:02:55.375Z,3.42
2019-03-01T14:05:24.505Z,3.90
2019-03-01T14:07:56.588Z,4.20
2019-03-01T14:10:26.266Z,2.27
2019-03-01T14:12:55.448Z,3.62
2019-03-01T14:15:24.760Z,1.70
2019-03-01T14:17:54.042Z,1.75
2019-03-01T14:20:23.469Z,1.77
2019-03-01T14:22:52.563Z,3.72
2019-03-01T14:25:21.647Z,3.72
2019-03-01T14:27:52.794Z,2.70
2019-03-01T14:30:30.264Z,1.98
2019-03-01T14:32:58.860Z,2.90
2019-03-01T14:35:28.158Z,3.67
2019-03-01T14:37:57.268Z,1.98
2019-03-01T14:40:26.256Z,1.60
2019-03-01T14:42:55.248Z,3.92
2019-03-01T14:45:26.233Z,1.80
2019-03-01T14:47:55.724Z,3.60
2019-03-01T14:50:26.008Z,2.67
2019-03-01T14:52:58.137Z,2.98
2019-03-01T14:55:35.053Z,1.87
2019-03-01T14:58:23.401Z,2.72
2019-03-01T15:01:01.299Z,2.27
2019-03-01T15:03:38.159Z,3.02
2019-03-01T15:06:07.805Z,2.10
2019-03-01T15:08:40.614Z,1.47
2019-03-01T15:11:13.839Z,3.22
2019-03-01T15:13:43.516Z,2.67
2019-03-01T15:16:12.691Z,3.37
2019-03-01T15:18:42.908Z,2.60
2019-03-01T15:21:13.235Z,2.35
2019-03-01T15:23:42.328Z,2.42
2019-03-01T15:26:12.006Z,4.40
2019-03-01T15:28:54.373Z,3.27
2019-03-01T15:31:21.599Z,4.25
2019-03-01T15:33:50.454Z,4.20
2019-03-01T15:36:19.592Z,6.90
2019-03-01T15:38:48.655Z,5.12
2019-03-01T15:41:17.767Z,5.10
2019-03-01T15:43:46.858Z,7.10
2019-03-01T15:46:17.855Z,5.75
2019-03-01T15:48:46.691Z,6.35
2019-03-01T15:51:15.684Z,3.35
2019-03-01T15:53:44.868Z,8.00
2019-03-01T15:56:13.839Z,5.60
2019-03-01T15:58:42.742Z,4.20
2019-03-01T16:01:12.187Z,6.58
2019-03-01T16:03:42.162Z,3.12
2019-03-01T16:06:17.283Z,4.45
2019-03-01T16:08:43.953Z,3.20
2019-03-01T16:11:12.825Z,3.33
2019-03-01T16:13:47.782Z,2.22
2019-03-01T16:16:13.756Z,3.17
2019-03-01T16:18:43.717Z,4.67
2019-03-01T16:21:12.808Z,4.12
2019-03-01T16:23:42.008Z,3.15
2019-03-01T16:26:11.088Z,1.90
2019-03-01T16:28:41.007Z,2.67
2019-03-01T16:31:10.107Z,1.42
2019-03-01T16:33:39.207Z,2.05
2019-03-01T16:36:10.770Z,2.10
2019-03-01T16:38:41.205Z,3.17
2019-03-01T16:41:10.589Z,2.10
2019-03-01T16:43:39.688Z,1.80
2019-03-01T16:46:08.988Z,2.02
2019-03-01T16:48:37.968Z,5.00
2019-03-01T16:51:07.068Z,3.87
2019-03-01T16:53:36.700Z,3.08
2019-03-01T16:56:06.929Z,2.05
2019-03-01T16:58:35.988Z,2.00
2019-03-01T17:01:05.288Z,2.10
2019-03-01T17:03:34.388Z,2.10
2019-03-01T17:06:03.586Z,2.22
2019-03-01T17:08:32.989Z,1.85
2019-03-01T17:11:02.621Z,3.62
2019-03-01T17:13:33.751Z,1.67
2019-03-01T17:16:03.047Z,2.27
2019-03-01T17:18:32.125Z,2.60
2019-03-01T17:21:01.264Z,1.82
2019-03-01T17:23:30.414Z,1.98
2019-03-01T17:25:59.528Z,2.00
2019-03-01T17:28:28.412Z,2.85
2019-03-01T17:30:58.212Z,2.05
2019-03-01T17:33:27.321Z,1.80
2019-03-01T17:35:56.306Z,2.30
2019-03-01T17:38:25.925Z,2.87
2019-03-01T17:40:55.012Z,3.65
2019-03-01T17:43:25.921Z,3.42
2019-03-01T17:45:57.774Z,3.15
2019-03-01T17:48:26.808Z,2.65
2019-03-01T17:50:56.029Z,2.27
2019-03-01T17:53:25.201Z,3.30
2019-03-01T17:55:54.318Z,2.55
2019-03-01T17:58:25.130Z,2.77
2019-03-01T18:00:54.428Z,2.67
2019-03-01T18:03:23.358Z,2.75
2019-03-01T18:05:52.429Z,3.65
2019-03-01T18:08:21.595Z,3.90
2019-03-01T18:10:50.603Z,2.67
2019-03-01T18:13:19.614Z,2.33
2019-03-01T18:15:49.700Z,2.40
2019-03-01T18:18:18.916Z,2.25
2019-03-01T18:20:48.031Z,3.30
2019-03-01T18:23:16.999Z,3.77
2019-03-01T18:25:45.888Z,2.15
2019-03-01T18:28:15.012Z,3.02
2019-03-01T18:30:44.179Z,4.45
2019-03-01T18:33:16.726Z,2.67
2019-03-01T18:35:44.128Z,2.87
2019-03-01T18:38:13.428Z,3.65
2019-03-01T18:40:42.313Z,8.03
2019-03-01T18:43:13.092Z,3.98
2019-03-01T18:45:43.148Z,3.40
2019-03-01T18:48:13.485Z,7.20
2019-03-01T18:50:42.580Z,5.53
2019-03-01T18:53:11.887Z,2.33
2019-03-01T18:55:40.974Z,4.37
2019-03-01T18:58:10.472Z,3.42
2019-03-01T19:00:49.614Z,4.22
2019-03-01T19:03:20.265Z,3.80
2019-03-01T19:05:49.347Z,3.02
2019-03-01T19:08:18.545Z,2.35
2019-03-01T19:10:53.925Z,2.40
2019-03-01T19:13:20.802Z,2.37
2019-03-01T19:15:54.377Z,2.77
2019-03-01T19:18:19.628Z,2.92
2019-03-01T19:20:53.420Z,4.37
2019-03-01T19:23:22.628Z,2.37
2019-03-01T19:25:51.619Z,2.80
2019-03-01T19:28:23.575Z,2.40
2019-03-01T19:30:51.252Z,2.20
2019-03-01T19:33:20.241Z,2.15
2019-03-01T19:35:49.327Z,2.20
2019-03-01T19:38:21.798Z,2.87
2019-03-01T19:40:49.168Z,2.95
2019-03-01T19:43:20.201Z,1.72
2019-03-01T19:45:49.307Z,2.40
2019-03-01T19:48:18.302Z,4.62
2019-03-01T19:50:47.289Z,1.70
2019-03-01T19:53:16.593Z,2.45
2019-03-01T19:55:47.306Z,1.95
2019-03-01T19:58:16.868Z,1.35
2019-03-01T20:00:46.648Z,1.82
2019-03-01T20:03:15.748Z,1.80
2019-03-01T20:05:44.723Z,1.82
2019-03-01T20:08:14.048Z,1.47
2019-03-01T20:10:43.248Z,2.42
2019-03-01T20:13:12.995Z,2.67
2019-03-01T20:15:46.176Z,1.85
2019-03-01T20:18:14.606Z,1.98
2019-03-01T20:20:43.686Z,1.50
2019-03-01T20:23:12.808Z,1.92
2019-03-01T20:25:41.928Z,1.70
2019-03-01T20:28:11.499Z,2.87
2019-03-01T20:30:41.928Z,2.47
2019-03-01T20:33:11.028Z,2.15
2019-03-01T20:35:40.129Z,2.62
2019-03-01T20:38:09.330Z,1.72
2019-03-01T20:40:38.629Z,2.67
2019-03-01T20:43:07.823Z,2.00
2019-03-01T20:45:38.938Z,1.98
2019-03-01T20:48:08.064Z,2.15
2019-03-01T20:50:37.165Z,2.33
2019-03-01T20:53:06.448Z,2.25
2019-03-01T20:55:37.198Z,1.35
2019-03-01T20:58:06.187Z,1.80
2019-03-01T21:00:35.388Z,2.33
2019-03-01T21:03:04.492Z,1.65
2019-03-01T21:05:33.683Z,1.65
2019-03-01T21:08:02.833Z,1.60
2019-03-01T21:10:33.134Z,1.98
2019-03-01T21:13:03.919Z,1.80
2019-03-01T21:15:34.595Z,1.77
2019-03-01T21:18:03.768Z,1.70
2019-03-01T21:20:32.747Z,1.32
2019-03-01T21:23:02.135Z,1.72
2019-03-01T21:25:31.159Z,2.05
2019-03-01T21:28:00.937Z,1.52
2019-03-01T21:30:32.128Z,1.05
2019-03-01T21:33:01.207Z,1.22
2019-03-01T21:35:30.278Z,1.42
2019-03-01T21:37:59.388Z,1.82
2019-03-01T21:40:31.372Z,1.30
2019-03-01T21:43:00.175Z,1.30
2019-03-01T21:45:29.730Z,1.50
2019-03-01T21:47:58.850Z,1.60
2019-03-01T21:50:27.928Z,1.10
2019-03-01T21:52:57.240Z,1.60
2019-03-01T21:55:28.573Z,1.50
2019-03-01T21:57:58.700Z,1.45
2019-03-01T22:00:31.447Z,1.75
2019-03-01T22:03:00.788Z,1.10
2019-03-01T22:05:29.888Z,1.27
2019-03-01T22:07:59.087Z,1.60
2019-03-01T22:10:28.072Z,1.40
2019-03-01T22:13:00.527Z,1.30
2019-03-01T22:15:28.825Z,1.40
2019-03-01T22:17:57.702Z,2.37
2019-03-01T22:20:26.888Z,1.60
2019-03-01T22:22:56.212Z,1.85
2019-03-01T22:25:25.310Z,1.50
2019-03-01T22:27:54.293Z,1.90
2019-03-01T22:30:33.347Z,2.65
2019-03-01T22:33:02.426Z,2.17
2019-03-01T22:35:31.513Z,1.60
2019-03-01T22:38:01.023Z,1.57
2019-03-01T22:40:31.133Z,1.87
2019-03-01T22:43:00.238Z,1.62
2019-03-01T22:45:29.327Z,3.65
2019-03-01T22:47:58.428Z,1.92
2019-03-01T22:50:27.610Z,1.72
2019-03-01T22:52:56.818Z,2.00
2019-03-01T22:55:25.808Z,1.80
2019-03-01T22:57:57.769Z,1.77
2019-03-01T23:00:54.435Z,1.67
2019-03-01T23:03:25.035Z,2.02
2019-03-01T23:05:53.523Z,1.82
2019-03-01T23:08:22.513Z,1.80
2019-03-01T23:10:53.839Z,1.82
2019-03-01T23:13:24.200Z,1.67
2019-03-01T23:15:53.293Z,2.25
2019-03-01T23:18:22.383Z,1.80
2019-03-01T23:20:51.367Z,1.57
2019-03-01T23:23:23.897Z,1.60
2019-03-01T23:25:51.103Z,1.95
2019-03-01T23:28:20.203Z,1.70
2019-03-01T23:30:49.248Z,2.22
2019-03-01T23:33:18.388Z,1.80
2019-03-01T23:35:49.681Z,4.08
2019-03-01T23:38:18.011Z,2.22
2019-03-01T23:40:47.012Z,2.42
2019-03-01T23:43:16.102Z,2.22
2019-03-01T23:45:45.206Z,2.10
2019-03-01T23:48:14.629Z,2.45
2019-03-01T23:50:43.798Z,3.15
2019-03-01T23:53:12.987Z,3.22
2019-03-01T23:55:41.991Z,2.52
2019-03-01T23:58:12.616Z,2.40
